Hlavní strana
METAR-TAF:

METAR-TAF

Letiště :

Abidžan, Pobřeží slonoviny

zeměpisná šířka: 05-15N, zeměpisná délka: 003-56W, výška: 7 m

Aktuální stav počasí

Zpráva byla vytvořena před 12 minutami, v 10:30 UTC
Jihojihozápadní vítr 9 kt
Teplota 27°C
Vlhkost vzduchu 84%
Tlak 1013 hPa
Viditelnost 10 km a více
Oblačno až skoro zataženo ve výšce 1100 ft
Oblačno až skoro zataženo ve výšce 4000 ft

METAR: DIAP 261030Z 20009KT 9999 BKN011 BKN040 27/24 Q1013 TEMPO 3000 DZ

Čas: 10:42 (10:42 UTC)

Předpověď počasí

Zpráva byla vytvořena před 5 hodinami a 42 minutami, v 05:00 UTC
Předpověď platná od 26 v 06 UTC do 27 v 12 UTC
Jihozápadní vítr 6 kt
Viditelnost 10 km a více
Polojasno ve výšce 1200 ft
Pravděpodobnost 30% :
Dočasný
od 26 v 06 UTC do 26 v 10 UTC
Viditelnost: 4000 m
Oblačno až skoro zataženo ve výšce 1200 ft
déšť
Dočasný
od 26 v 15 UTC do 26 v 20 UTC
Oblačno až skoro zataženo ve výšce 1200 ft

TAF: DIAP 260500Z 2606/2712 22006KT 9999 SCT012 PROB30 TEMPO 2606/2610 4000 RA BKN012 TEMPO 2615/2620 BKN012

Stav a předpovědi počasí z více než 4 000 letišť (zprávy METAR a TAF).

Červené a žluté tečky na mapě představují dostupné meteorologické stanice.

Když kurzor umístíte na tečku, zobrazí se název stanice.

Pak kliknutím zobrazíte stav a předpověď počasí.

Chcete-li změnit mapu, kliknutím na zelené tlačítko se znaménkem +mapu přiblížíte, kliknutím na zelené tlačítko se znaménkem – mapu oddálíte a kliknutím na zelené šipky přejdete na sousední mapy.


METAR-TAF: